createdAt,value
2018-07-17T00:00:00.402Z,1000.39
2018-07-17T00:00:40.943Z,1000.4
2018-07-17T00:01:21.550Z,1000.35
2018-07-17T00:02:02.083Z,1000.37
2018-07-17T00:02:42.651Z,1000.36
2018-07-17T00:03:23.112Z,1000.39
2018-07-17T00:04:03.625Z,1000.36
2018-07-17T00:04:44.170Z,1000.38
2018-07-17T00:05:24.682Z,1000.36
2018-07-17T00:06:05.218Z,1000.34
2018-07-17T00:06:45.744Z,1000.35
2018-07-17T00:07:26.267Z,1000.37
2018-07-17T00:08:06.791Z,1000.37
2018-07-17T00:08:47.320Z,1000.38
2018-07-17T00:09:27.870Z,1000.41
2018-07-17T00:10:08.391Z,1000.4
2018-07-17T00:10:48.926Z,1000.41
2018-07-17T00:11:29.442Z,1000.41
2018-07-17T00:12:09.969Z,1000.43
2018-07-17T00:12:50.525Z,1000.46
2018-07-17T00:13:31.005Z,1000.42
2018-07-17T00:14:11.512Z,1000.42
2018-07-17T00:14:52.027Z,1000.47
2018-07-17T00:15:32.553Z,1000.44
2018-07-17T00:16:13.060Z,1000.41
2018-07-17T00:16:53.577Z,1000.42
2018-07-17T00:17:34.101Z,1000.45
2018-07-17T00:18:14.624Z,1000.42
2018-07-17T00:18:55.150Z,1000.41
2018-07-17T00:19:35.673Z,1000.39
2018-07-17T00:20:16.176Z,1000.38
2018-07-17T00:20:56.700Z,1000.4
2018-07-17T00:21:37.220Z,1000.39
2018-07-17T00:22:17.735Z,1000.37
2018-07-17T00:22:58.248Z,1000.39
2018-07-17T00:23:38.767Z,1000.37
2018-07-17T00:24:19.278Z,1000.36
2018-07-17T00:24:59.804Z,1000.42
2018-07-17T00:25:40.332Z,1000.37
2018-07-17T00:26:20.883Z,1000.34
2018-07-17T00:27:01.396Z,1000.34
2018-07-17T00:27:41.912Z,1000.36
2018-07-17T00:28:22.428Z,1000.39
2018-07-17T00:29:02.940Z,1000.34
2018-07-17T00:29:43.461Z,1000.38
2018-07-17T00:30:23.982Z,1000.37
2018-07-17T00:31:04.503Z,1000.38
2018-07-17T00:31:45.026Z,1000.35
2018-07-17T00:32:25.548Z,1000.35
2018-07-17T00:33:06.062Z,1000.38
2018-07-17T00:33:46.577Z,1000.35
2018-07-17T00:34:27.107Z,1000.33
2018-07-17T00:35:07.621Z,1000.35
2018-07-17T00:35:48.133Z,1000.34
2018-07-17T00:36:28.659Z,1000.39
2018-07-17T00:37:09.171Z,1000.39
2018-07-17T00:37:49.687Z,1000.39
2018-07-17T00:38:30.210Z,1000.39
2018-07-17T00:39:10.741Z,1000.38
2018-07-17T00:39:51.261Z,1000.36
2018-07-17T00:40:31.780Z,1000.36
2018-07-17T00:41:12.300Z,1000.39
2018-07-17T00:41:52.827Z,1000.39
2018-07-17T00:42:33.359Z,1000.36
2018-07-17T00:43:13.869Z,1000.41
2018-07-17T00:43:54.393Z,1000.44
2018-07-17T00:44:34.967Z,1000.37
2018-07-17T00:45:15.509Z,1000.39
2018-07-17T00:45:56.031Z,1000.4
2018-07-17T00:46:36.546Z,1000.41
2018-07-17T00:47:17.072Z,1000.39
2018-07-17T00:47:57.615Z,1000.35
2018-07-17T00:48:38.141Z,1000.36
2018-07-17T00:49:18.657Z,1000.34
2018-07-17T00:49:59.174Z,1000.29
2018-07-17T00:50:39.711Z,1000.37
2018-07-17T00:51:20.252Z,1000.37
2018-07-17T00:52:00.768Z,1000.33
2018-07-17T00:52:41.285Z,1000.39
2018-07-17T00:53:21.844Z,1000.37
2018-07-17T00:54:02.326Z,1000.37
2018-07-17T00:54:42.840Z,1000.36
2018-07-17T00:55:23.366Z,1000.41
2018-07-17T00:56:03.887Z,1000.42
2018-07-17T00:56:44.405Z,1000.39
2018-07-17T00:57:24.920Z,1000.42
2018-07-17T00:58:05.454Z,1000.43
2018-07-17T00:58:45.970Z,1000.38
2018-07-17T00:59:26.480Z,1000.38
2018-07-17T01:00:07.001Z,1000.34
2018-07-17T01:00:47.525Z,1000.34
2018-07-17T01:01:28.052Z,1000.37
2018-07-17T01:02:08.576Z,1000.34
2018-07-17T01:02:49.101Z,1000.35
2018-07-17T01:03:29.637Z,1000.35
2018-07-17T01:04:10.154Z,1000.38
2018-07-17T01:04:50.678Z,1000.36
2018-07-17T01:05:31.213Z,1000.39
2018-07-17T01:06:11.739Z,1000.39
2018-07-17T01:06:52.258Z,1000.42
2018-07-17T01:07:32.761Z,1000.42
2018-07-17T01:08:13.308Z,1000.45
2018-07-17T01:08:53.812Z,1000.41
2018-07-17T01:09:34.328Z,1000.46
2018-07-17T01:10:14.847Z,1000.46
2018-07-17T01:10:55.362Z,1000.46
2018-07-17T01:11:35.880Z,1000.42
2018-07-17T01:12:16.408Z,1000.45
2018-07-17T01:12:56.914Z,1000.46
2018-07-17T01:13:37.472Z,1000.42
2018-07-17T01:14:17.992Z,1000.43
2018-07-17T01:14:58.502Z,1000.42
2018-07-17T01:15:39.032Z,1000.44
2018-07-17T01:16:19.552Z,1000.42
2018-07-17T01:17:00.084Z,1000.42
2018-07-17T01:17:40.608Z,1000.39
2018-07-17T01:18:21.141Z,1000.41
2018-07-17T01:19:01.656Z,1000.45
2018-07-17T01:19:42.185Z,1000.46
2018-07-17T01:20:22.705Z,1000.44
2018-07-17T01:21:03.234Z,1000.46
2018-07-17T01:21:43.762Z,1000.42
2018-07-17T01:22:24.273Z,1000.45
2018-07-17T01:23:04.794Z,1000.42
2018-07-17T01:23:45.304Z,1000.41
2018-07-17T01:24:25.846Z,1000.37
2018-07-17T01:25:06.352Z,1000.4
2018-07-17T01:25:46.877Z,1000.41
2018-07-17T01:26:27.395Z,1000.43
2018-07-17T01:27:07.912Z,1000.39
2018-07-17T01:27:48.455Z,1000.38
2018-07-17T01:28:28.969Z,1000.37
2018-07-17T01:29:09.489Z,1000.39
2018-07-17T01:29:49.998Z,1000.4
2018-07-17T01:30:30.539Z,1000.38
2018-07-17T01:31:11.062Z,1000.43
2018-07-17T01:31:51.583Z,1000.41
2018-07-17T01:32:32.096Z,1000.4
2018-07-17T01:33:12.622Z,1000.42
2018-07-17T01:33:53.140Z,1000.38
2018-07-17T01:34:33.660Z,1000.38
2018-07-17T01:35:14.182Z,1000.4
2018-07-17T01:35:54.700Z,1000.37
2018-07-17T01:36:35.219Z,1000.36
2018-07-17T01:37:15.738Z,1000.37
2018-07-17T01:37:56.282Z,1000.37
2018-07-17T01:38:36.801Z,1000.38
2018-07-17T01:39:17.325Z,1000.41
2018-07-17T01:39:57.842Z,1000.38
2018-07-17T01:40:38.371Z,1000.35
2018-07-17T01:41:18.892Z,1000.34
2018-07-17T01:41:59.412Z,1000.36
2018-07-17T01:42:39.935Z,1000.36
2018-07-17T01:43:20.456Z,1000.44
2018-07-17T01:44:00.977Z,1000.4
2018-07-17T01:44:41.507Z,1000.42
2018-07-17T01:45:22.042Z,1000.42
2018-07-17T01:46:02.550Z,1000.38
2018-07-17T01:46:43.066Z,1000.43
2018-07-17T01:47:23.594Z,1000.39
2018-07-17T01:48:04.122Z,1000.38
2018-07-17T01:48:44.636Z,1000.37
2018-07-17T01:49:25.171Z,1000.34
2018-07-17T01:50:05.707Z,1000.37
2018-07-17T01:50:46.236Z,1000.35
2018-07-17T01:51:26.759Z,1000.31
2018-07-17T01:52:07.272Z,1000.31
2018-07-17T01:52:47.806Z,1000.33
2018-07-17T01:53:28.334Z,1000.29
2018-07-17T01:54:08.862Z,1000.3
2018-07-17T01:54:49.378Z,1000.33
2018-07-17T01:55:29.906Z,1000.31
2018-07-17T01:56:10.491Z,1000.31
2018-07-17T01:56:50.953Z,1000.25
2018-07-17T01:57:31.491Z,1000.28
2018-07-17T01:58:12.019Z,1000.27
2018-07-17T01:58:52.542Z,1000.25
2018-07-17T01:59:33.060Z,1000.27
2018-07-17T02:00:13.576Z,1000.22
2018-07-17T02:00:54.112Z,1000.24
2018-07-17T02:01:34.616Z,1000.27
2018-07-17T02:02:15.137Z,1000.25
2018-07-17T02:02:55.658Z,1000.27
2018-07-17T02:03:36.174Z,1000.29
2018-07-17T02:04:16.697Z,1000.28
2018-07-17T02:04:57.252Z,1000.27
2018-07-17T02:05:37.731Z,1000.3
2018-07-17T02:06:18.262Z,1000.31
2018-07-17T02:06:58.774Z,1000.3
2018-07-17T02:07:39.302Z,1000.36
2018-07-17T02:08:19.842Z,1000.36
2018-07-17T02:09:00.363Z,1000.39
2018-07-17T02:09:40.891Z,1000.36
2018-07-17T02:10:21.415Z,1000.37
2018-07-17T02:11:01.935Z,1000.43
2018-07-17T02:11:42.482Z,1000.43
2018-07-17T02:12:23.005Z,1000.44
2018-07-17T02:13:03.530Z,1000.48
2018-07-17T02:13:44.053Z,1000.49
2018-07-17T02:14:24.580Z,1000.48
2018-07-17T02:15:05.098Z,1000.51
2018-07-17T02:15:45.615Z,1000.49
2018-07-17T02:16:26.132Z,1000.48
2018-07-17T02:17:06.657Z,1000.48
2018-07-17T02:17:47.179Z,1000.45
2018-07-17T02:18:27.695Z,1000.46
2018-07-17T02:19:08.217Z,1000.49
2018-07-17T02:19:48.752Z,1000.47
2018-07-17T02:20:29.273Z,1000.45
2018-07-17T02:21:09.798Z,1000.44
2018-07-17T02:21:50.321Z,1000.46
2018-07-17T02:22:30.829Z,1000.51
2018-07-17T02:23:11.359Z,1000.49
2018-07-17T02:23:51.876Z,1000.45
2018-07-17T02:24:32.408Z,1000.49
2018-07-17T02:25:12.936Z,1000.52
2018-07-17T02:25:53.460Z,1000.52
2018-07-17T02:26:33.981Z,1000.51
2018-07-17T02:27:14.510Z,1000.54
2018-07-17T02:27:55.034Z,1000.54
2018-07-17T02:28:35.542Z,1000.54
2018-07-17T02:29:16.063Z,1000.58
2018-07-17T02:29:56.575Z,1000.57
2018-07-17T02:30:37.098Z,1000.59
2018-07-17T02:31:17.619Z,1000.5
2018-07-17T02:31:58.145Z,1000.53
2018-07-17T02:32:38.663Z,1000.51
2018-07-17T02:33:19.182Z,1000.57
2018-07-17T02:33:59.715Z,1000.5
2018-07-17T02:34:40.230Z,1000.54
2018-07-17T02:35:20.764Z,1000.54
2018-07-17T02:36:01.293Z,1000.59
2018-07-17T02:36:41.813Z,1000.56
2018-07-17T02:37:22.325Z,1000.55
2018-07-17T02:38:02.851Z,1000.56
2018-07-17T02:38:43.382Z,1000.53
2018-07-17T02:39:23.904Z,1000.55
2018-07-17T02:40:04.423Z,1000.56
2018-07-17T02:40:44.947Z,1000.58
2018-07-17T02:41:25.478Z,1000.6
2018-07-17T02:42:05.997Z,1000.59
2018-07-17T02:42:46.507Z,1000.59
2018-07-17T02:43:27.034Z,1000.59
2018-07-17T02:44:07.554Z,1000.61
2018-07-17T02:44:48.079Z,1000.59
2018-07-17T02:45:28.619Z,1000.58
2018-07-17T02:46:09.137Z,1000.57
2018-07-17T02:46:49.668Z,1000.57
2018-07-17T02:47:30.215Z,1000.56
2018-07-17T02:48:10.736Z,1000.6
2018-07-17T02:48:51.262Z,1000.62
2018-07-17T02:49:31.782Z,1000.61
2018-07-17T02:50:12.314Z,1000.63
2018-07-17T02:50:52.829Z,1000.6
2018-07-17T02:51:33.338Z,1000.65
2018-07-17T02:52:13.859Z,1000.67
2018-07-17T02:52:54.383Z,1000.65
2018-07-17T02:53:34.911Z,1000.69
2018-07-17T02:54:15.438Z,1000.68
2018-07-17T02:54:55.961Z,1000.72
2018-07-17T02:55:36.507Z,1000.72
2018-07-17T02:56:17.036Z,1000.77
2018-07-17T02:56:57.550Z,1000.76
2018-07-17T02:57:38.069Z,1000.77
2018-07-17T02:58:18.591Z,1000.75
2018-07-17T02:58:59.115Z,1000.72
2018-07-17T02:59:39.623Z,1000.77
2018-07-17T03:00:20.144Z,1000.77
2018-07-17T03:01:00.662Z,1000.77
2018-07-17T03:01:41.183Z,1000.78
2018-07-17T03:02:21.694Z,1000.74
2018-07-17T03:03:02.219Z,1000.75
2018-07-17T03:03:42.743Z,1000.77
2018-07-17T03:04:23.273Z,1000.75
2018-07-17T03:05:03.794Z,1000.75
2018-07-17T03:05:44.310Z,1000.74
2018-07-17T03:06:24.830Z,1000.75
2018-07-17T03:07:05.376Z,1000.75
2018-07-17T03:07:45.889Z,1000.76
2018-07-17T03:08:26.414Z,1000.72
2018-07-17T03:09:06.932Z,1000.75
2018-07-17T03:09:47.468Z,1000.75
2018-07-17T03:10:27.988Z,1000.72
2018-07-17T03:11:08.520Z,1000.72
2018-07-17T03:11:49.055Z,1000.75
2018-07-17T03:12:29.577Z,1000.73
2018-07-17T03:13:10.100Z,1000.72
2018-07-17T03:13:50.620Z,1000.75
2018-07-17T03:14:31.146Z,1000.76
2018-07-17T03:15:11.670Z,1000.74
2018-07-17T03:15:52.190Z,1000.81
2018-07-17T03:16:32.708Z,1000.77
2018-07-17T03:17:13.218Z,1000.76
2018-07-17T03:17:53.763Z,1000.76
2018-07-17T03:18:34.304Z,1000.78
2018-07-17T03:19:14.821Z,1000.81
2018-07-17T03:19:55.351Z,1000.84
2018-07-17T03:20:35.872Z,1000.84
2018-07-17T03:21:16.402Z,1000.84
2018-07-17T03:21:56.913Z,1000.84
2018-07-17T03:22:37.430Z,1000.83
2018-07-17T03:23:17.965Z,1000.86
2018-07-17T03:23:58.484Z,1000.86
2018-07-17T03:24:39.063Z,1000.85
2018-07-17T03:25:19.531Z,1000.89
2018-07-17T03:26:00.064Z,1000.91
2018-07-17T03:26:40.596Z,1000.87
2018-07-17T03:27:21.120Z,1000.92
2018-07-17T03:28:01.628Z,1000.92
2018-07-17T03:28:42.151Z,1000.89
2018-07-17T03:29:22.670Z,1000.94
2018-07-17T03:30:03.178Z,1000.9
2018-07-17T03:30:43.688Z,1000.91
2018-07-17T03:31:24.219Z,1000.92
2018-07-17T03:32:04.742Z,1000.93
2018-07-17T03:32:45.259Z,1000.92
2018-07-17T03:33:25.778Z,1000.94
2018-07-17T03:34:06.315Z,1000.94
2018-07-17T03:34:46.832Z,1000.94
2018-07-17T03:35:27.352Z,1000.92
2018-07-17T03:36:07.878Z,1000.97
2018-07-17T03:36:48.406Z,1000.96
2018-07-17T03:37:28.969Z,1000.94
2018-07-17T03:38:09.434Z,1000.98
2018-07-17T03:38:49.951Z,1000.95
2018-07-17T03:39:30.492Z,1000.98
2018-07-17T03:40:11.017Z,1001.03
2018-07-17T03:40:51.532Z,1000.99
2018-07-17T03:41:32.051Z,1000.97
2018-07-17T03:42:12.573Z,1001
2018-07-17T03:42:53.088Z,1000.99
2018-07-17T03:43:33.613Z,1000.97
2018-07-17T03:44:14.154Z,1001.01
2018-07-17T03:44:54.679Z,1001
2018-07-17T03:45:35.202Z,1001.06
2018-07-17T03:46:15.719Z,1000.99
2018-07-17T03:46:56.242Z,1001.03
2018-07-17T03:47:36.762Z,1001.03
2018-07-17T03:48:17.296Z,1001.05
2018-07-17T03:48:57.813Z,1001.07
2018-07-17T03:49:38.340Z,1001.04
2018-07-17T03:50:18.874Z,1001.08
2018-07-17T03:50:59.403Z,1001.08
2018-07-17T03:51:39.921Z,1001.06
2018-07-17T03:52:20.451Z,1001.06
2018-07-17T03:53:00.984Z,1001.08
2018-07-17T03:53:41.499Z,1001.07
2018-07-17T03:54:22.024Z,1001.08
2018-07-17T03:55:02.543Z,1001.06
2018-07-17T03:55:43.078Z,1001.03
2018-07-17T03:56:23.598Z,1001.05
2018-07-17T03:57:04.129Z,1001.05
2018-07-17T03:57:44.645Z,1001.08
2018-07-17T03:58:25.172Z,1001.09
2018-07-17T03:59:05.700Z,1001.07
2018-07-17T03:59:46.235Z,1001.08
2018-07-17T04:00:26.758Z,1001.1
2018-07-17T04:01:07.272Z,1001.09
2018-07-17T04:01:47.788Z,1001.1
2018-07-17T04:02:28.304Z,1001.12
2018-07-17T04:03:08.834Z,1001.19
2018-07-17T04:03:49.383Z,1001.17
2018-07-17T04:04:29.900Z,1001.15
2018-07-17T04:05:10.424Z,1001.18
2018-07-17T04:05:50.954Z,1001.18
2018-07-17T04:06:31.493Z,1001.21
2018-07-17T04:07:12.007Z,1001.2
2018-07-17T04:07:52.529Z,1001.22
2018-07-17T04:08:33.039Z,1001.24
2018-07-17T04:09:13.552Z,1001.23
2018-07-17T04:09:54.078Z,1001.25
2018-07-17T04:10:34.605Z,1001.2
2018-07-17T04:11:15.122Z,1001.2
2018-07-17T04:11:55.632Z,1001.17
2018-07-17T04:12:36.163Z,1001.2
2018-07-17T04:13:16.712Z,1001.16
2018-07-17T04:13:57.212Z,1001.19
2018-07-17T04:14:37.730Z,1001.18
2018-07-17T04:15:18.257Z,1001.18
2018-07-17T04:15:58.781Z,1001.15
2018-07-17T04:16:39.321Z,1001.19
2018-07-17T04:17:19.844Z,1001.15
2018-07-17T04:18:00.377Z,1001.13
2018-07-17T04:18:40.889Z,1001.17
2018-07-17T04:19:21.410Z,1001.17
2018-07-17T04:20:01.932Z,1001.19
2018-07-17T04:20:42.462Z,1001.17
2018-07-17T04:21:22.980Z,1001.18
2018-07-17T04:22:03.505Z,1001.16
2018-07-17T04:22:44.059Z,1001.17
2018-07-17T04:23:24.560Z,1001.13
2018-07-17T04:24:05.078Z,1001.16
2018-07-17T04:24:45.605Z,1001.14
2018-07-17T04:25:26.119Z,1001.12
2018-07-17T04:26:06.734Z,1001.1
2018-07-17T04:26:47.370Z,1001.17
2018-07-17T04:27:27.891Z,1001.11
2018-07-17T04:28:08.427Z,1001.16
2018-07-17T04:28:48.936Z,1001.17
2018-07-17T04:29:29.467Z,1001.14
2018-07-17T04:30:09.991Z,1001.15
2018-07-17T04:30:50.506Z,1001.17
2018-07-17T04:31:31.044Z,1001.21
2018-07-17T04:32:11.545Z,1001.2
2018-07-17T04:32:52.089Z,1001.17
2018-07-17T04:33:32.627Z,1001.16
2018-07-17T04:34:13.150Z,1001.15
2018-07-17T04:34:53.671Z,1001.18
2018-07-17T04:35:34.209Z,1001.18
2018-07-17T04:36:14.724Z,1001.1
2018-07-17T04:36:55.259Z,1001.19
2018-07-17T04:37:35.773Z,1001.18
2018-07-17T04:38:16.293Z,1001.18
2018-07-17T04:38:56.800Z,1001.23
2018-07-17T04:39:37.323Z,1001.18
2018-07-17T04:40:17.857Z,1001.2
2018-07-17T04:40:58.379Z,1001.19
2018-07-17T04:41:38.913Z,1001.23
2018-07-17T04:42:19.442Z,1001.21
2018-07-17T04:42:59.964Z,1001.2
2018-07-17T04:43:40.490Z,1001.19
2018-07-17T04:44:21.018Z,1001.24
2018-07-17T04:45:01.543Z,1001.2
2018-07-17T04:45:42.062Z,1001.23
2018-07-17T04:46:22.587Z,1001.26
2018-07-17T04:47:03.135Z,1001.26
2018-07-17T04:47:43.672Z,1001.31
2018-07-17T04:48:24.179Z,1001.36
2018-07-17T04:49:04.706Z,1001.36
2018-07-17T04:49:45.221Z,1001.29
2018-07-17T04:50:25.749Z,1001.32
2018-07-17T04:51:06.275Z,1001.33
2018-07-17T04:51:46.799Z,1001.29
2018-07-17T04:52:27.329Z,1001.3
2018-07-17T04:53:07.876Z,1001.27
2018-07-17T04:53:48.475Z,1001.3
2018-07-17T04:54:29.000Z,1001.3
2018-07-17T04:55:09.555Z,1001.28
2018-07-17T04:55:51.854Z,1001.36
2018-07-17T04:56:31.878Z,1001.33
2018-07-17T04:57:12.428Z,1001.32
2018-07-17T04:57:52.935Z,1001.31
2018-07-17T04:58:33.470Z,1001.36
2018-07-17T04:59:13.992Z,1001.33
2018-07-17T04:59:54.527Z,1001.35
2018-07-17T05:00:35.039Z,1001.33
2018-07-17T05:01:15.562Z,1001.33
2018-07-17T05:01:56.138Z,1001.32
2018-07-17T05:02:36.618Z,1001.29
2018-07-17T05:03:17.153Z,1001.37
2018-07-17T05:03:57.682Z,1001.36
2018-07-17T05:04:38.320Z,1001.32
2018-07-17T05:05:18.836Z,1001.32
2018-07-17T05:05:59.372Z,1001.34
2018-07-17T05:06:39.897Z,1001.3
2018-07-17T05:07:20.482Z,1001.34
2018-07-17T05:08:00.964Z,1001.29
2018-07-17T05:08:41.455Z,1001.3
2018-07-17T05:09:21.982Z,1001.26
2018-07-17T05:10:02.498Z,1001.25
2018-07-17T05:10:43.021Z,1001.23
2018-07-17T05:11:23.537Z,1001.26
2018-07-17T05:12:04.050Z,1001.29
2018-07-17T05:12:44.561Z,1001.29
2018-07-17T05:13:25.088Z,1001.33
2018-07-17T05:14:05.598Z,1001.29
2018-07-17T05:14:46.125Z,1001.35
2018-07-17T05:15:26.662Z,1001.39
2018-07-17T05:16:07.172Z,1001.42
2018-07-17T05:16:47.693Z,1001.43
2018-07-17T05:17:28.226Z,1001.5
2018-07-17T05:18:08.776Z,1001.53
2018-07-17T05:18:49.322Z,1001.57
2018-07-17T05:19:29.852Z,1001.54
2018-07-17T05:20:10.456Z,1001.61
2018-07-17T05:20:50.923Z,1001.6
2018-07-17T05:21:31.444Z,1001.57
2018-07-17T05:22:11.953Z,1001.56
2018-07-17T05:22:52.486Z,1001.55
2018-07-17T05:23:32.992Z,1001.61
2018-07-17T05:24:13.523Z,1001.6
2018-07-17T05:24:54.052Z,1001.56
2018-07-17T05:25:34.571Z,1001.54
2018-07-17T05:26:15.095Z,1001.59
2018-07-17T05:26:55.602Z,1001.58
2018-07-17T05:27:36.151Z,1001.57
2018-07-17T05:28:16.702Z,1001.58
2018-07-17T05:28:57.205Z,1001.65
2018-07-17T05:29:37.732Z,1001.65
2018-07-17T05:30:18.264Z,1001.64
2018-07-17T05:30:58.783Z,1001.63
2018-07-17T05:31:39.315Z,1001.65
2018-07-17T05:32:19.842Z,1001.6
2018-07-17T05:33:00.387Z,1001.61
2018-07-17T05:33:40.883Z,1001.58
2018-07-17T05:34:21.401Z,1001.62
2018-07-17T05:35:01.942Z,1001.6
2018-07-17T05:35:42.471Z,1001.56
2018-07-17T05:36:22.989Z,1001.66
2018-07-17T05:37:03.514Z,1001.62
2018-07-17T05:37:44.046Z,1001.64
2018-07-17T05:38:24.582Z,1001.63
2018-07-17T05:39:05.103Z,1001.64
2018-07-17T05:39:45.629Z,1001.62
2018-07-17T05:40:26.147Z,1001.62
2018-07-17T05:41:06.701Z,1001.66
2018-07-17T05:41:47.215Z,1001.65
2018-07-17T05:42:27.823Z,1001.65
2018-07-17T05:43:08.351Z,1001.64
2018-07-17T05:43:48.914Z,1001.66
2018-07-17T05:44:29.435Z,1001.6
2018-07-17T05:45:09.960Z,1001.63
2018-07-17T05:45:50.486Z,1001.64
2018-07-17T05:46:31.101Z,1001.68
2018-07-17T05:47:11.545Z,1001.64
2018-07-17T05:47:52.071Z,1001.67
2018-07-17T05:48:32.584Z,1001.66
2018-07-17T05:49:13.124Z,1001.65
2018-07-17T05:49:53.657Z,1001.69
2018-07-17T05:50:34.176Z,1001.64
2018-07-17T05:51:14.701Z,1001.63
2018-07-17T05:51:55.270Z,1001.68
2018-07-17T05:52:35.732Z,1001.67
2018-07-17T05:53:16.260Z,1001.66
2018-07-17T05:53:56.784Z,1001.63
2018-07-17T05:54:37.316Z,1001.65
2018-07-17T05:55:17.836Z,1001.68
2018-07-17T05:55:58.363Z,1001.68
2018-07-17T05:56:38.898Z,1001.66
2018-07-17T05:57:19.415Z,1001.7
2018-07-17T05:57:59.946Z,1001.72
2018-07-17T05:58:40.483Z,1001.67
2018-07-17T05:59:21.015Z,1001.67
2018-07-17T06:00:01.537Z,1001.68
2018-07-17T06:00:42.045Z,1001.68
2018-07-17T06:01:22.588Z,1001.68
2018-07-17T06:02:03.101Z,1001.69
2018-07-17T06:02:43.634Z,1001.73
2018-07-17T06:03:24.162Z,1001.66
2018-07-17T06:04:04.683Z,1001.69
2018-07-17T06:04:45.200Z,1001.7
2018-07-17T06:05:25.726Z,1001.74
2018-07-17T06:06:06.238Z,1001.71
2018-07-17T06:06:46.772Z,1001.68
2018-07-17T06:07:27.291Z,1001.74
2018-07-17T06:08:07.827Z,1001.66
2018-07-17T06:08:48.348Z,1001.64
2018-07-17T06:09:28.885Z,1001.68
2018-07-17T06:10:09.465Z,1001.65
2018-07-17T06:10:49.957Z,1001.71
2018-07-17T06:11:30.467Z,1001.68
2018-07-17T06:12:10.992Z,1001.71
2018-07-17T06:12:51.526Z,1001.7
2018-07-17T06:13:32.069Z,1001.76
2018-07-17T06:14:12.600Z,1001.72
2018-07-17T06:14:53.126Z,1001.75
2018-07-17T06:15:33.643Z,1001.77
2018-07-17T06:16:14.180Z,1001.75
2018-07-17T06:16:54.699Z,1001.78
2018-07-17T06:17:35.231Z,1001.74
2018-07-17T06:18:15.747Z,1001.78
2018-07-17T06:18:56.333Z,1001.72
2018-07-17T06:19:36.799Z,1001.74
2018-07-17T06:20:17.341Z,1001.75
2018-07-17T06:20:58.053Z,1001.77
2018-07-17T06:21:38.587Z,1001.76
2018-07-17T06:22:19.113Z,1001.79
2018-07-17T06:22:59.634Z,1001.77
2018-07-17T06:23:40.167Z,1001.77
2018-07-17T06:24:20.695Z,1001.79
2018-07-17T06:25:01.298Z,1001.8
2018-07-17T06:25:41.755Z,1001.81
2018-07-17T06:26:22.273Z,1001.82
2018-07-17T06:27:02.802Z,1001.79
2018-07-17T06:27:43.322Z,1001.76
2018-07-17T06:28:23.859Z,1001.76
2018-07-17T06:29:04.444Z,1001.79
2018-07-17T06:29:44.916Z,1001.73
2018-07-17T06:30:25.435Z,1001.74
2018-07-17T06:31:05.954Z,1001.79
2018-07-17T06:31:46.503Z,1001.74
2018-07-17T06:32:27.052Z,1001.74
2018-07-17T06:33:07.586Z,1001.75
2018-07-17T06:33:48.115Z,1001.76
2018-07-17T06:34:28.631Z,1001.74
2018-07-17T06:35:09.154Z,1001.79
2018-07-17T06:35:49.674Z,1001.77
2018-07-17T06:36:30.241Z,1001.77
2018-07-17T06:37:10.762Z,1001.76
2018-07-17T06:37:51.275Z,1001.78
2018-07-17T06:38:31.802Z,1001.8
2018-07-17T06:39:12.332Z,1001.8
2018-07-17T06:39:52.853Z,1001.78
2018-07-17T06:40:33.369Z,1001.82
2018-07-17T06:41:13.908Z,1001.8
2018-07-17T06:41:54.425Z,1001.84
2018-07-17T06:42:34.945Z,1001.85
2018-07-17T06:43:15.485Z,1001.87
2018-07-17T06:43:55.994Z,1001.85
2018-07-17T06:44:36.516Z,1001.85
2018-07-17T06:45:17.046Z,1001.88
2018-07-17T06:45:57.573Z,1001.9
2018-07-17T06:46:38.135Z,1001.91
2018-07-17T06:47:18.654Z,1001.86
2018-07-17T06:47:59.198Z,1001.87
2018-07-17T06:48:39.731Z,1001.86
2018-07-17T06:49:20.247Z,1001.85
2018-07-17T06:50:00.777Z,1001.87
2018-07-17T06:50:41.359Z,1001.85
2018-07-17T06:51:21.847Z,1001.84
2018-07-17T06:52:02.392Z,1001.87
2018-07-17T06:52:42.913Z,1001.86
2018-07-17T06:53:23.439Z,1001.86
2018-07-17T06:54:03.961Z,1001.89
2018-07-17T06:54:44.488Z,1001.87
2018-07-17T06:55:25.020Z,1001.86
2018-07-17T06:56:05.531Z,1001.84
2018-07-17T06:56:46.057Z,1001.86
2018-07-17T06:57:26.636Z,1001.88
2018-07-17T06:58:07.123Z,1001.84
2018-07-17T06:58:47.667Z,1001.92
2018-07-17T06:59:28.900Z,1001.9
2018-07-17T07:00:09.430Z,1001.91
2018-07-17T07:00:49.957Z,1001.91
2018-07-17T07:01:30.503Z,1001.89
2018-07-17T07:02:11.021Z,1001.88
2018-07-17T07:02:51.548Z,1001.93
2018-07-17T07:03:32.058Z,1001.92
2018-07-17T07:04:12.590Z,1001.87
2018-07-17T07:04:53.074Z,1001.91
2018-07-17T07:05:33.615Z,1001.91
2018-07-17T07:06:14.164Z,1001.9
2018-07-17T07:06:54.705Z,1001.98
2018-07-17T07:07:35.202Z,1001.93
2018-07-17T07:08:15.726Z,1001.93
2018-07-17T07:08:56.263Z,1001.94
2018-07-17T07:09:36.785Z,1001.95
2018-07-17T07:10:17.315Z,1001.9
2018-07-17T07:10:57.853Z,1001.88
2018-07-17T07:11:38.360Z,1001.94
2018-07-17T07:12:18.903Z,1001.87
2018-07-17T07:12:59.427Z,1001.93
2018-07-17T07:13:39.956Z,1001.91
2018-07-17T07:14:20.497Z,1001.83
2018-07-17T07:15:01.009Z,1001.9
2018-07-17T07:15:41.541Z,1001.88
2018-07-17T07:16:22.078Z,1001.89
2018-07-17T07:17:02.596Z,1001.86
2018-07-17T07:17:43.117Z,1001.84
2018-07-17T07:18:23.628Z,1001.87
2018-07-17T07:19:04.151Z,1001.9
2018-07-17T07:19:44.683Z,1001.89
2018-07-17T07:20:25.203Z,1001.93
2018-07-17T07:21:05.740Z,1001.93
2018-07-17T07:21:46.290Z,1001.95
2018-07-17T07:22:26.833Z,1001.91
2018-07-17T07:23:07.359Z,1001.98
2018-07-17T07:23:47.883Z,1002.01
2018-07-17T07:24:28.408Z,1001.93
2018-07-17T07:25:08.939Z,1001.93
2018-07-17T07:25:49.452Z,1001.97
2018-07-17T07:26:29.987Z,1001.94
2018-07-17T07:27:10.503Z,1001.99
2018-07-17T07:27:51.032Z,1001.93
2018-07-17T07:28:31.561Z,1001.94
2018-07-17T07:29:12.092Z,1001.94
2018-07-17T07:29:52.621Z,1001.93
2018-07-17T07:30:33.151Z,1001.94
2018-07-17T07:31:13.678Z,1001.93
2018-07-17T07:31:54.197Z,1001.96
2018-07-17T07:32:34.725Z,1001.97
2018-07-17T07:33:15.263Z,1001.96
2018-07-17T07:33:55.800Z,1002
2018-07-17T07:34:36.315Z,1001.98
2018-07-17T07:35:16.838Z,1001.93
2018-07-17T07:35:57.367Z,1001.97
2018-07-17T07:36:37.879Z,1001.9
2018-07-17T07:37:18.470Z,1001.91
2018-07-17T07:37:58.962Z,1001.91
2018-07-17T07:38:39.500Z,1001.92
2018-07-17T07:39:20.022Z,1001.93
2018-07-17T07:40:00.536Z,1001.88
2018-07-17T07:40:41.077Z,1001.91
2018-07-17T07:41:21.606Z,1001.88
2018-07-17T07:42:02.130Z,1001.89
2018-07-17T07:42:42.703Z,1001.91
2018-07-17T07:43:23.205Z,1001.87
2018-07-17T07:44:03.743Z,1001.87
2018-07-17T07:44:44.254Z,1001.88
2018-07-17T07:45:24.788Z,1001.88
2018-07-17T07:46:05.301Z,1001.92
2018-07-17T07:46:45.837Z,1001.89
2018-07-17T07:47:26.380Z,1001.9
2018-07-17T07:48:06.912Z,1001.9
2018-07-17T07:48:47.450Z,1001.91
2018-07-17T07:49:27.993Z,1001.92
2018-07-17T07:50:08.540Z,1001.91
2018-07-17T07:50:49.073Z,1001.91
2018-07-17T07:51:29.617Z,1001.92
2018-07-17T07:52:10.128Z,1001.94
2018-07-17T07:52:50.675Z,1001.91
2018-07-17T07:53:31.196Z,1001.96
2018-07-17T07:54:11.719Z,1001.95
2018-07-17T07:54:52.254Z,1001.96
2018-07-17T07:55:32.824Z,1001.93
2018-07-17T07:56:13.300Z,1001.93
2018-07-17T07:56:53.828Z,1001.91
2018-07-17T07:57:34.340Z,1001.91
2018-07-17T07:58:14.884Z,1001.9
2018-07-17T07:58:55.419Z,1001.88
2018-07-17T07:59:35.946Z,1001.93
2018-07-17T08:00:16.488Z,1001.94
2018-07-17T08:00:57.022Z,1001.93
2018-07-17T08:01:37.572Z,1001.94
2018-07-17T08:02:18.108Z,1001.95
2018-07-17T08:02:58.627Z,1001.9
2018-07-17T08:03:39.169Z,1001.94
2018-07-17T08:04:19.665Z,1001.9
2018-07-17T08:05:00.210Z,1001.87
2018-07-17T08:05:40.736Z,1001.85
2018-07-17T08:06:21.274Z,1001.87
2018-07-17T08:07:01.800Z,1001.91
2018-07-17T08:07:42.339Z,1001.88
2018-07-17T08:08:22.885Z,1001.91
2018-07-17T08:09:03.401Z,1001.9
2018-07-17T08:09:43.947Z,1001.87
2018-07-17T08:10:24.472Z,1001.86
2018-07-17T08:11:05.011Z,1001.88